• Join FlightAware (Why Join?)
  • Login
  • US Flag 
07:31AM EST


 

Airport Tracker/Info


-or-


 

Live Flight TrackerFlight Track Log ✈ EMD21 ✈ 20-Jul-2013 ✈ KMLC - KFYV

Flight Track Log - Related Links

Times and Time Zones

All times are in EDT time to prevent confusion due to time zone crossing. See the EMD21 flight status page for this flight to view local times or setup timezone preferences in your user account.

Time Position Orientation Groundspeed Altitude Reporting Facility
EDT Latitude Longitude Course Direction KTS MPH feet Rate Location/Type
12:38AM 34.9086 -95.6994 44° Northeast 213 245 5,000  Level Fort Worth Center
12:39AM 34.9392 -95.6558 49° Northeast 178 205 6,100 1,260 Climbing Fort Worth Center
12:40AM 34.9764 -95.6194 39° Northeast 171 197 7,600 900 Climbing Fort Worth Center
12:41AM 35.0069 -95.5656 55° Northeast 172 198 8,000 180 Climbing Fort Worth Center
12:42AM 35.0375 -95.5219 49° Northeast 190 219 8,000  Level Fort Worth Center
12:43AM 35.0643 -95.5095 44° Northeast  Level FlightAware Approximate
12:43AM 35.0847 -95.4675 43° Northeast 196 226 8,000  Level Fort Worth Center
12:44AM 35.1211 -95.4058 54° Northeast 206 237 8,000  Level Fort Worth Center
12:45AM 35.1722 -95.3411 46° Northeast 213 245 8,000  Level Fort Worth Center
12:46AM 35.2067 -95.2817 55° Northeast 213 245 8,000  Level Fort Worth Center
12:47AM 35.2347 -95.2150 63° Northeast 218 251 8,000  Level Fort Worth Center
12:48AM 35.2714 -95.1606 50° Northeast 218 251 8,000  Level Fort Worth Center
12:49AM 35.3078 -95.1011 53° Northeast 218 251 8,000  Level Fort Worth Center
12:50AM 35.3397 -95.0264 62° Northeast 218 251 8,000  Level Fort Worth Center
12:51AM 35.3761 -94.9619 55° Northeast 223 257 8,000  Level Fort Worth Center
12:52AM 35.4125 -94.8997 54° Northeast 223 257 8,000  Level Fort Worth Center
12:54AM 35.4800 -94.8261 42° Northeast  Level FlightAware Approximate
01:01AM 35.7785 -94.4823 51° Northeast  Level FlightAware Approximate
01:02AM 35.8151 -94.4274 51° Northeast  Level FlightAware Approximate
01:03AM 35.8517 -94.3725 51° Northeast  Level FlightAware Approximate
01:04AM 35.8860 -94.3298 47° Northeast  Level FlightAware Approximate
01:05AM 35.9252 -94.2776 47° Northeast  Level FlightAware Approximate
01:06AM 35.9605 -94.2214 53° Northeast  Level FlightAware Approximate
01:07AM 35.9983 -94.1683 39° Northeast  Level FlightAware Approximate
01:08AM 36.0000 -94.1667 39° Northeast  Level FlightAware Approximate
01:09AM 36.0051 -94.1701 39° Northeast  Level Estimated
01:10AM 36.0000 -94.1667 39° Northeast  Level FlightAware Approximate
01:11AM 36.0051 -94.1701 39° Northeast  Level Estimated
01:12AM 36.0000 -94.1667 39° Northeast  Level FlightAware Approximate
01:13AM 36.0051 -94.1701 39° Northeast  Level Estimated
01:14AM 36.0000 -94.1667 39° Northeast  Level FlightAware Approximate
01:15AM 36.0051 -94.1701 39° Northeast  Level Estimated
01:16AM 36.0000 -94.1667 39° Northeast  Level FlightAware Approximate
01:17AM 36.0051 -94.1701 39° Northeast  Level Estimated
01:18AM 36.0000 -94.1667 39° Northeast  Level FlightAware Approximate
01:19AM 36.0051 -94.1701 39° Northeast  Level Estimated
01:20AM 36.0000 -94.1667 39° Northeast  Level FlightAware Approximate
01:21AM 36.0051 -94.1701 39° Northeast  Level Estimated
01:22AM 36.0000 -94.1667 39° Northeast  Level FlightAware Approximate
01:23AM 36.0051 -94.1701 39° Northeast  Level Estimated